createdAt,value
2022-09-04T00:02:32.131Z,97466.84
2022-09-04T00:05:04.909Z,97486.72
2022-09-04T00:07:57.019Z,97489.28
2022-09-04T00:10:40.897Z,97489.25
2022-09-04T00:13:32.296Z,97491.84
2022-09-04T00:16:14.226Z,97494.41
2022-09-04T00:18:57.424Z,97485.75
2022-09-04T00:21:48.900Z,97498.72
2022-09-04T00:24:16.755Z,97487.44
2022-09-04T00:27:03.421Z,97502.13
2022-09-04T00:29:51.751Z,97500.41
2022-09-04T00:32:34.189Z,97497.81
2022-09-04T00:35:39.630Z,97514.09
2022-09-04T00:38:15.559Z,97518.41
2022-09-04T00:40:56.879Z,97518.41
2022-09-04T00:43:29.523Z,97511.53
2022-09-04T00:46:20.434Z,97514.97
2022-09-04T00:48:52.669Z,97514.97
2022-09-04T00:51:29.817Z,97520.97
2022-09-04T00:54:20.821Z,97526.09
2022-09-04T00:57:21.377Z,97523.53
2022-09-04T01:00:16.590Z,97518.41
2022-09-04T01:03:07.431Z,97526.97
2022-09-04T01:05:47.520Z,97515.69
2022-09-04T01:08:32.708Z,97528.66
2022-09-04T01:11:11.412Z,97530.38
2022-09-04T01:13:42.283Z,97532.09
2022-09-04T01:16:32.952Z,97526.94
2022-09-04T01:19:07.669Z,97535.53
2022-09-04T01:21:46.325Z,97532.06
2022-09-04T01:24:38.079Z,97535.53
2022-09-04T01:27:19.172Z,97524.25
2022-09-04T01:30:13.523Z,97534.66
2022-09-04T01:33:09.082Z,97535.53
2022-09-04T01:35:55.819Z,97536.38
2022-09-04T01:38:43.390Z,97519.91
2022-09-04T01:41:28.180Z,97549.22
2022-09-04T01:43:54.880Z,97544.06
2022-09-04T01:46:24.578Z,97524.25
2022-09-04T01:48:51.164Z,97542.34
2022-09-04T01:51:34.108Z,97543.22
2022-09-04T01:54:23.460Z,97515.47
2022-09-04T01:57:12.640Z,97548.38
2022-09-04T01:59:53.425Z,97539.66
2022-09-04T02:02:38.680Z,97557.78
2022-09-04T02:05:48.432Z,97561.22
2022-09-04T02:08:21.310Z,97562.03
2022-09-04T02:11:16.749Z,97556.91
2022-09-04T02:13:56.452Z,97558.63
2022-09-04T02:16:26.818Z,97556.91
2022-09-04T02:19:12.292Z,97554.31
2022-09-04T02:21:51.410Z,97544.81
2022-09-04T02:24:31.103Z,97548.28
2022-09-04T02:27:04.715Z,97537.03
2022-09-04T02:29:52.682Z,97545.78
2022-09-04T02:32:32.744Z,97550.03
2022-09-04T02:35:08.883Z,97556.91
2022-09-04T02:37:38.424Z,97545.78
2022-09-04T02:40:10.413Z,97540.63
2022-09-04T02:42:55.284Z,97543.22
2022-09-04T02:45:36.953Z,97547.50
2022-09-04T02:48:13.756Z,97548.34
2022-09-04T02:51:02.233Z,97553.50
2022-09-04T02:53:35.336Z,97548.34
2022-09-04T02:56:39.409Z,97544.06
2022-09-04T02:59:48.000Z,97536.34
2022-09-04T03:02:42.931Z,97537.19
2022-09-04T03:05:25.149Z,97539.59
2022-09-04T03:08:00.674Z,97558.59
2022-09-04T03:10:48.257Z,97556.88
2022-09-04T03:13:23.493Z,97552.50
2022-09-04T03:15:55.815Z,97567.16
2022-09-04T03:18:52.828Z,97582.56
2022-09-04T03:21:41.888Z,97568.03
2022-09-04T03:24:17.836Z,97572.28
2022-09-04T03:26:47.022Z,97575.75
2022-09-04T03:29:34.652Z,97574.91
2022-09-04T03:32:15.195Z,97572.28
2022-09-04T03:34:42.688Z,97572.28
2022-09-04T03:37:43.548Z,97550.72
2022-09-04T03:40:35.354Z,97579.19
2022-09-04T03:43:13.970Z,97600.56
2022-09-04T03:46:06.563Z,97579.19
2022-09-04T03:48:56.512Z,97563.66
2022-09-04T03:51:35.249Z,97573.16
2022-09-04T03:54:24.140Z,97580.00
2022-09-04T03:57:03.131Z,97584.34
2022-09-04T03:59:48.440Z,97580.88
2022-09-04T04:02:23.963Z,97592.00
2022-09-04T04:05:00.355Z,97586.88
2022-09-04T04:07:38.801Z,97590.25
2022-09-04T04:10:35.401Z,97606.56
2022-09-04T04:13:12.262Z,97605.69
2022-09-04T04:15:42.124Z,97612.56
2022-09-04T04:18:20.321Z,97615.16
2022-09-04T04:20:46.775Z,97610.81
2022-09-04T04:23:36.367Z,97585.78
2022-09-04T04:26:08.173Z,97618.56
2022-09-04T04:29:12.217Z,97615.16
2022-09-04T04:32:11.284Z,97609.84
2022-09-04T04:34:47.229Z,97624.56
2022-09-04T04:37:24.969Z,97613.41
2022-09-04T04:39:57.158Z,97615.97
2022-09-04T04:42:29.528Z,97620.28
2022-09-04T04:45:26.973Z,97628.00
2022-09-04T04:48:08.535Z,97628.00
2022-09-04T04:50:59.380Z,97630.56
2022-09-04T04:53:46.973Z,97633.13
2022-09-04T04:56:33.992Z,97646.00
2022-09-04T04:59:23.221Z,97640.81
2022-09-04T05:02:09.407Z,97642.53
2022-09-04T05:04:42.081Z,97640.81
2022-09-04T05:07:32.067Z,97648.53
2022-09-04T05:10:05.915Z,97650.22
2022-09-04T05:12:48.549Z,97655.38
2022-09-04T05:15:58.131Z,97658.81
2022-09-04T05:18:32.057Z,97654.44
2022-09-04T05:21:18.094Z,97648.31
2022-09-04T05:23:54.781Z,97667.38
2022-09-04T05:26:36.624Z,97672.50
2022-09-04T05:29:28.223Z,97649.13
2022-09-04T05:32:31.438Z,97673.38
2022-09-04T05:35:06.957Z,97679.38
2022-09-04T05:37:43.077Z,97682.78
2022-09-04T05:40:14.753Z,97692.22
2022-09-04T05:43:13.125Z,97697.38
2022-09-04T05:46:10.597Z,97708.50
2022-09-04T05:49:03.581Z,97722.19
2022-09-04T05:51:43.182Z,97711.91
2022-09-04T05:54:24.881Z,97729.91
2022-09-04T05:57:50.525Z,97689.38
2022-09-04T06:00:18.166Z,97695.41
2022-09-04T06:02:56.522Z,97715.31
2022-09-04T06:06:18.564Z,97713.59
2022-09-04T06:09:13.710Z,97710.03
2022-09-04T06:11:52.267Z,97728.22
2022-09-04T06:14:37.425Z,97723.88
2022-09-04T06:17:34.927Z,97725.59
2022-09-04T06:20:28.296Z,97742.75
2022-09-04T06:23:07.263Z,97735.75
2022-09-04T06:25:55.707Z,97739.31
2022-09-04T06:28:46.546Z,97739.31
2022-09-04T06:31:19.004Z,97745.31
2022-09-04T06:34:13.527Z,97743.63
2022-09-04T06:36:42.977Z,97747.88
2022-09-04T06:39:31.008Z,97749.59
2022-09-04T06:42:07.080Z,97753.03
2022-09-04T06:44:44.149Z,97760.75
2022-09-04T06:47:21.069Z,97758.16
2022-09-04T06:49:50.461Z,97758.16
2022-09-04T06:52:25.360Z,97754.69
2022-09-04T06:55:39.824Z,97759.00
2022-09-04T06:58:37.499Z,97750.19
2022-09-04T07:01:11.821Z,97757.03
2022-09-04T07:03:57.264Z,97769.19
2022-09-04T07:06:59.147Z,97774.41
2022-09-04T07:09:27.720Z,97776.97
2022-09-04T07:12:16.065Z,97782.94
2022-09-04T07:14:50.568Z,97760.47
2022-09-04T07:17:44.159Z,97778.66
2022-09-04T07:20:17.714Z,97784.69
2022-09-04T07:22:56.340Z,97784.69
2022-09-04T07:25:33.609Z,97787.25
2022-09-04T07:28:25.272Z,97789.88
2022-09-04T07:31:33.551Z,97788.09
2022-09-04T07:34:22.740Z,97793.25
2022-09-04T07:36:54.361Z,97771.59
2022-09-04T07:39:39.962Z,97778.41
2022-09-04T07:42:26.302Z,97797.56
2022-09-04T07:45:12.448Z,97799.25
2022-09-04T07:48:17.041Z,97795.81
2022-09-04T07:51:03.180Z,97800.84
2022-09-04T07:53:51.529Z,97806.09
2022-09-04T07:56:35.328Z,97811.25
2022-09-04T07:59:34.370Z,97809.50
2022-09-04T08:02:11.508Z,97810.41
2022-09-04T08:05:14.496Z,97819.81
2022-09-04T08:07:41.003Z,97822.41
2022-09-04T08:10:30.417Z,97833.56
2022-09-04T08:13:33.625Z,97831.84
2022-09-04T08:16:08.096Z,97827.53
2022-09-04T08:18:37.688Z,97830.09
2022-09-04T08:21:29.018Z,97834.38
2022-09-04T08:24:10.801Z,97836.13
2022-09-04T08:26:49.432Z,97843.84
2022-09-04T08:29:22.041Z,97849.81
2022-09-04T08:32:23.801Z,97840.22
2022-09-04T08:35:23.347Z,97858.41
2022-09-04T08:38:11.676Z,97849.81
2022-09-04T08:41:15.323Z,97852.38
2022-09-04T08:43:50.849Z,97860.09
2022-09-04T08:46:35.662Z,97856.69
2022-09-04T08:49:36.039Z,97866.97
2022-09-04T08:52:27.464Z,97868.69
2022-09-04T08:55:24.792Z,97865.22
2022-09-04T08:58:19.286Z,97860.09
2022-09-04T09:01:07.804Z,97858.41
2022-09-04T09:03:59.240Z,97857.53
2022-09-04T09:06:51.265Z,97865.25
2022-09-04T09:09:54.924Z,97862.69
2022-09-04T09:12:47.161Z,97862.69
2022-09-04T09:15:36.349Z,97858.41
2022-09-04T09:18:21.489Z,97853.28
2022-09-04T09:21:00.180Z,97856.72
2022-09-04T09:23:44.679Z,97848.09
2022-09-04T09:26:59.995Z,97855.00
2022-09-04T09:29:45.098Z,97855.88
2022-09-04T09:32:35.340Z,97854.97
2022-09-04T09:35:39.432Z,97862.72
2022-09-04T09:38:27.656Z,97853.28
2022-09-04T09:41:25.001Z,97852.44
2022-09-04T09:44:13.256Z,97855.84
2022-09-04T09:46:54.189Z,97847.22
2022-09-04T09:49:57.841Z,97843.88
2022-09-04T09:52:50.345Z,97839.56
2022-09-04T09:55:49.009Z,97849.03
2022-09-04T09:58:24.233Z,97839.56
2022-09-04T10:01:00.406Z,97843.91
2022-09-04T10:04:10.659Z,97833.59
2022-09-04T10:06:52.443Z,97834.44
2022-09-04T10:09:37.715Z,97831.88
2022-09-04T10:12:45.754Z,97835.31
2022-09-04T10:15:40.343Z,97831.03
2022-09-04T10:18:35.927Z,97831.88
2022-09-04T10:21:25.897Z,97836.16
2022-09-04T10:24:43.186Z,97827.59
2022-09-04T10:27:12.260Z,97823.31
2022-09-04T10:29:53.869Z,97825.00
2022-09-04T10:32:20.292Z,97829.28
2022-09-04T10:35:21.790Z,97825.00
2022-09-04T10:37:53.819Z,97809.41
2022-09-04T10:40:57.904Z,97817.31
2022-09-04T10:43:24.472Z,97817.28
2022-09-04T10:46:29.317Z,97820.75
2022-09-04T10:49:33.772Z,97817.28
2022-09-04T10:53:01.253Z,97820.75
2022-09-04T10:55:47.240Z,97828.47
2022-09-04T10:58:44.979Z,97823.31
2022-09-04T11:01:26.968Z,97817.28
2022-09-04T11:04:28.778Z,97831.88
2022-09-04T11:07:36.927Z,97825.00
2022-09-04T11:10:35.656Z,97824.16
2022-09-04T11:13:23.779Z,97821.59
2022-09-04T11:16:25.372Z,97833.59
2022-09-04T11:19:10.404Z,97819.88
2022-09-04T11:21:42.697Z,97822.44
2022-09-04T11:24:30.406Z,97830.16
2022-09-04T11:27:17.090Z,97832.72
2022-09-04T11:30:04.165Z,97817.28
2022-09-04T11:32:53.072Z,97813.00
2022-09-04T11:35:56.818Z,97812.16
2022-09-04T11:38:48.116Z,97812.16
2022-09-04T11:41:40.021Z,97806.13
2022-09-04T11:44:28.568Z,97797.59
2022-09-04T11:47:16.336Z,97796.75
2022-09-04T11:50:20.521Z,97801.03
2022-09-04T11:53:24.677Z,97795.03
2022-09-04T11:56:13.069Z,97797.59
2022-09-04T11:59:15.688Z,97795.03
2022-09-04T12:02:12.121Z,97790.72
2022-09-04T12:05:05.663Z,97792.47
2022-09-04T12:08:10.669Z,97794.16
2022-09-04T12:11:04.631Z,97792.47
2022-09-04T12:13:34.080Z,97796.72
2022-09-04T12:16:06.540Z,97792.44
2022-09-04T12:19:00.284Z,97795.84
2022-09-04T12:21:41.946Z,97802.75
2022-09-04T12:24:26.609Z,97810.47
2022-09-04T12:27:11.576Z,97802.75
2022-09-04T12:30:06.569Z,97797.59
2022-09-04T12:32:50.819Z,97799.34
2022-09-04T12:35:35.585Z,97796.72
2022-09-04T12:38:25.740Z,97792.47
2022-09-04T12:41:11.732Z,97800.22
2022-09-04T12:43:47.156Z,97797.63
2022-09-04T12:46:14.429Z,97801.06
2022-09-04T12:49:06.195Z,97805.34
2022-09-04T12:51:55.800Z,97800.22
2022-09-04T12:54:31.552Z,97796.66
2022-09-04T12:57:16.010Z,97803.63
2022-09-04T12:59:48.097Z,97809.59
2022-09-04T13:02:20.759Z,97797.63
2022-09-04T13:05:10.088Z,97793.28
2022-09-04T13:07:47.428Z,97807.03
2022-09-04T13:10:13.845Z,97803.63
2022-09-04T13:12:46.754Z,97824.19
2022-09-04T13:15:29.514Z,97801.91
2022-09-04T13:17:59.047Z,97796.75
2022-09-04T13:20:40.195Z,97776.81
2022-09-04T13:23:37.058Z,97804.50
2022-09-04T13:26:36.137Z,97806.19
2022-09-04T13:29:30.141Z,97802.81
2022-09-04T13:32:54.046Z,97799.38
2022-09-04T13:35:36.758Z,97802.81
2022-09-04T13:38:29.985Z,97808.81
2022-09-04T13:41:34.396Z,97801.94
2022-09-04T13:44:10.957Z,97802.81
2022-09-04T13:46:43.658Z,97795.94
2022-09-04T13:49:27.916Z,97801.94
2022-09-04T13:51:59.760Z,97803.63
2022-09-04T13:54:33.544Z,97801.06
2022-09-04T13:57:08.401Z,97801.94
2022-09-04T13:59:34.931Z,97796.59
2022-09-04T14:02:04.824Z,97792.22
2022-09-04T14:04:34.802Z,97698.69
2022-09-04T14:07:06.211Z,97792.41
2022-09-04T14:09:37.100Z,97808.75
2022-09-04T14:12:13.546Z,97805.38
2022-09-04T14:14:48.560Z,97811.38
2022-09-04T14:17:17.332Z,97786.25
2022-09-04T14:19:46.793Z,97803.66
2022-09-04T14:22:19.347Z,97804.53
2022-09-04T14:25:15.897Z,97794.13
2022-09-04T14:27:50.691Z,97803.66
2022-09-04T14:30:24.560Z,97810.56
2022-09-04T14:33:19.391Z,97797.63
2022-09-04T14:36:24.867Z,97813.97
2022-09-04T14:39:15.636Z,97816.50
2022-09-04T14:41:45.096Z,97816.50
2022-09-04T14:44:44.042Z,97807.91
2022-09-04T14:47:55.820Z,97811.34
2022-09-04T14:50:24.626Z,97809.56
2022-09-04T14:52:53.270Z,97817.34
2022-09-04T14:56:07.501Z,97813.09
2022-09-04T14:58:42.043Z,97802.63
2022-09-04T15:01:20.180Z,97814.78
2022-09-04T15:04:37.243Z,97795.66
2022-09-04T15:07:29.637Z,97805.38
2022-09-04T15:10:14.532Z,97800.19
2022-09-04T15:12:43.542Z,97808.75
2022-09-04T15:15:16.297Z,97802.78
2022-09-04T15:18:02.463Z,97806.19
2022-09-04T15:20:29.200Z,97795.69
2022-09-04T15:23:01.297Z,97810.41
2022-09-04T15:25:59.205Z,97811.34
2022-09-04T15:28:38.377Z,97812.22
2022-09-04T15:31:16.491Z,97811.34
2022-09-04T15:33:44.396Z,97803.50
2022-09-04T15:36:23.657Z,97807.91
2022-09-04T15:38:55.541Z,97803.50
2022-09-04T15:41:26.839Z,97813.06
2022-09-04T15:44:08.741Z,97816.44
2022-09-04T15:46:55.809Z,97810.47
2022-09-04T15:49:25.241Z,97809.59
2022-09-04T15:52:18.341Z,97793.97
2022-09-04T15:54:44.804Z,97811.31
2022-09-04T15:57:17.301Z,97816.44
2022-09-04T15:59:54.418Z,97790.47
2022-09-04T16:02:25.452Z,97764.44
2022-09-04T16:05:03.304Z,97794.81
2022-09-04T16:07:36.494Z,97816.41
2022-09-04T16:10:24.633Z,97815.59
2022-09-04T16:13:01.638Z,97813.88
2022-09-04T16:16:03.635Z,97813.03
2022-09-04T16:18:58.501Z,97820.75
2022-09-04T16:21:40.624Z,97816.41
2022-09-04T16:24:16.316Z,97813.88
2022-09-04T16:26:48.872Z,97834.44
2022-09-04T16:29:36.599Z,97821.59
2022-09-04T16:32:05.952Z,97537.06
2022-09-04T16:34:55.500Z,97818.16
2022-09-04T16:37:30.425Z,97802.53
2022-09-04T16:40:18.263Z,97819.00
2022-09-04T16:42:54.217Z,97819.00
2022-09-04T16:45:25.261Z,97813.88
2022-09-04T16:48:25.083Z,97812.19
2022-09-04T16:51:25.928Z,97819.88
2022-09-04T16:53:54.112Z,97818.16
2022-09-04T16:56:37.056Z,97822.47
2022-09-04T16:59:18.760Z,97825.03
2022-09-04T17:02:32.175Z,97825.03
2022-09-04T17:05:21.492Z,97832.75
2022-09-04T17:08:12.249Z,97819.91
2022-09-04T17:11:02.824Z,97836.19
2022-09-04T17:13:44.037Z,97818.78
2022-09-04T17:16:15.181Z,97834.44
2022-09-04T17:18:47.048Z,97771.94
2022-09-04T17:27:53.558Z,97834.44
2022-09-04T17:29:09.733Z,97839.53
2022-09-04T17:29:14.170Z,97834.44
2022-09-04T17:31:04.661Z,97839.53
2022-09-04T17:36:50.609Z,97833.56
2022-09-04T17:40:42.578Z,97841.28
2022-09-04T17:40:48.434Z,97836.09
2022-09-04T17:42:24.339Z,97849.81
2022-09-04T17:45:22.165Z,97843.84
2022-09-04T17:48:01.846Z,97845.53
2022-09-04T17:50:28.841Z,97848.09
2022-09-04T17:53:12.095Z,97837.66
2022-09-04T17:55:47.257Z,97859.25
2022-09-04T17:58:35.526Z,97856.69
2022-09-04T18:01:15.001Z,97859.25
2022-09-04T18:04:21.160Z,97861.00
2022-09-04T18:07:44.755Z,97873.81
2022-09-04T18:09:59.169Z,97873.81
2022-09-04T18:12:31.595Z,97873.81
2022-09-04T18:15:32.720Z,97884.09
2022-09-04T18:17:54.993Z,97883.22
2022-09-04T18:20:31.309Z,97883.22
2022-09-04T18:23:06.233Z,97887.50
2022-09-04T18:25:51.960Z,97884.09
2022-09-04T18:28:29.457Z,97874.41
2022-09-04T18:37:12.959Z,97892.63
2022-09-04T18:37:19.632Z,97889.19
2022-09-04T18:37:45.051Z,97893.50
2022-09-04T18:41:56.874Z,97896.06
2022-09-04T18:50:24.956Z,97902.06
2022-09-04T18:50:46.625Z,97908.06
2022-09-04T18:50:50.871Z,97914.03
2022-09-04T18:52:13.157Z,97915.78
2022-09-04T18:54:41.870Z,97867.94
2022-09-04T18:57:24.613Z,97908.06
2022-09-04T18:59:58.381Z,97895.81
2022-09-04T19:02:53.251Z,97902.03
2022-09-04T19:05:21.596Z,97895.81
2022-09-04T19:07:50.048Z,97916.63
2022-09-04T19:10:25.687Z,97915.78
2022-09-04T19:12:52.433Z,97917.47
2022-09-04T19:15:59.076Z,97926.06
2022-09-04T19:18:43.565Z,97932.88
2022-09-04T19:21:14.277Z,97931.19
2022-09-04T19:24:10.038Z,97934.56
2022-09-04T19:26:41.633Z,97931.19
2022-09-04T19:29:36.778Z,97952.59
2022-09-04T19:32:10.008Z,97934.63
2022-09-04T19:34:58.470Z,97931.19
2022-09-04T19:39:41.419Z,97927.75
2022-09-04T19:45:57.692Z,97926.88
2022-09-04T19:45:57.692Z,97927.75
2022-09-04T19:46:29.511Z,97938.03
2022-09-04T19:51:08.076Z,97939.72
2022-09-04T19:53:33.980Z,97935.47
2022-09-04T19:55:23.358Z,97929.44
2022-09-04T19:57:53.937Z,97914.66
2022-09-04T20:00:42.943Z,97939.72
2022-09-04T20:03:29.773Z,97937.16
2022-09-04T20:06:21.637Z,97939.72
2022-09-04T20:09:30.756Z,97937.16
2022-09-04T20:12:06.027Z,97931.13
2022-09-04T20:14:54.621Z,97934.56
2022-09-04T20:17:28.345Z,97925.97
2022-09-04T20:19:58.543Z,97932.00
2022-09-04T20:22:28.717Z,97938.84
2022-09-04T20:25:13.465Z,97939.72
2022-09-04T20:27:53.909Z,97927.75
2022-09-04T20:30:24.992Z,97933.69
2022-09-04T20:33:26.214Z,97937.16
2022-09-04T20:36:03.611Z,97937.16
2022-09-04T20:38:50.785Z,97929.44
2022-09-04T20:41:26.125Z,97939.72
2022-09-04T20:44:04.329Z,97935.47
2022-09-04T20:52:45.271Z,97940.59
2022-09-04T20:52:54.192Z,97607.16
2022-09-04T20:52:55.881Z,97938.03
2022-09-04T20:55:29.868Z,97936.25
2022-09-04T21:02:05.138Z,97937.06
2022-09-04T21:03:21.625Z,97941.41
2022-09-04T21:03:59.095Z,97946.53
2022-09-04T21:06:33.195Z,97946.53
2022-09-04T21:09:33.957Z,97944.84
2022-09-04T21:12:15.891Z,97935.38
2022-09-04T21:14:45.561Z,97897.94
2022-09-04T21:17:47.028Z,97943.16
2022-09-04T21:20:23.145Z,97944.84
2022-09-04T21:23:16.761Z,97953.44
2022-09-04T21:26:01.467Z,97955.13
2022-09-04T21:28:46.725Z,97957.72
2022-09-04T21:31:16.145Z,97956.84
2022-09-04T21:34:04.896Z,97950.81
2022-09-04T21:36:41.877Z,97909.06
2022-09-04T21:39:29.913Z,97957.72
2022-09-04T21:42:20.045Z,97959.41
2022-09-04T21:45:14.063Z,97957.72
2022-09-04T21:47:57.894Z,97965.34
2022-09-04T21:51:06.280Z,97963.63
2022-09-04T21:54:08.701Z,97973.06
2022-09-04T22:02:27.988Z,97967.91
2022-09-04T22:02:38.833Z,97955.88
2022-09-04T22:03:31.785Z,97963.63
2022-09-04T22:06:04.432Z,97965.34
2022-09-04T22:13:31.083Z,97967.06
2022-09-04T22:13:37.962Z,97973.06
2022-09-04T22:14:26.182Z,97976.50
2022-09-04T22:17:40.327Z,97979.09
2022-09-04T22:20:12.937Z,97972.22
2022-09-04T22:23:07.187Z,97977.38
2022-09-04T22:25:41.077Z,97965.34
2022-09-04T22:28:26.168Z,97973.06
2022-09-04T22:31:14.349Z,97970.50
2022-09-04T22:34:16.776Z,97962.69
2022-09-04T22:36:46.919Z,97975.63
2022-09-04T22:40:14.298Z,97975.63
2022-09-04T22:42:50.834Z,97972.22
2022-09-04T22:45:32.685Z,97975.63
2022-09-04T22:48:01.857Z,97974.78
2022-09-04T22:50:50.950Z,97980.78
2022-09-04T22:53:37.038Z,97974.78
2022-09-04T22:56:24.830Z,97978.19
2022-09-04T22:58:52.941Z,97977.34
2022-09-04T23:01:26.575Z,97979.91
2022-09-04T23:04:37.614Z,97983.34
2022-09-04T23:13:20.661Z,97980.72
2022-09-04T23:13:51.185Z,97979.03
2022-09-04T23:13:53.168Z,97979.91
2022-09-04T23:16:37.060Z,97978.16
2022-09-04T23:20:30.297Z,97973.03
2022-09-04T23:26:45.673Z,97948.72
2022-09-04T23:26:47.005Z,97969.59
2022-09-04T23:29:09.413Z,97965.28
2022-09-04T23:32:09.399Z,97965.28
2022-09-04T23:34:56.004Z,97967.03
2022-09-04T23:38:01.167Z,97965.28
2022-09-04T23:40:27.629Z,97960.09
2022-09-04T23:43:18.665Z,97967.03
2022-09-04T23:46:01.650Z,97967.03
2022-09-04T23:48:47.270Z,97965.25
2022-09-04T23:51:40.762Z,97961.00
2022-09-04T23:54:28.252Z,97963.59
2022-09-04T23:57:00.637Z,97948.91
2022-09-04T23:59:38.296Z,97935.13
